sensor_id;sensor_type;location;lat;lon;timestamp;P1;durP1;ratioP1;P2;durP2;ratioP2
15504;SDS011;7854;52.184;5.942;2023-06-19T00:08:49;6;;;5;;
15504;SDS011;7854;52.184;5.942;2023-06-19T00:11:03;6;;;5;;
15504;SDS011;7854;52.184;5.942;2023-06-19T00:13:18;5;;;5;;
15504;SDS011;7854;52.184;5.942;2023-06-19T00:15:32;5;;;5;;
15504;SDS011;7854;52.184;5.942;2023-06-19T00:17:46;5;;;5;;
15504;SDS011;7854;52.184;5.942;2023-06-19T00:20:01;6;;;6;;
15504;SDS011;7854;52.184;5.942;2023-06-19T00:22:16;5;;;5;;
15504;SDS011;7854;52.184;5.942;2023-06-19T00:24:30;10;;;5;;
15504;SDS011;7854;52.184;5.942;2023-06-19T00:26:45;7;;;5;;
15504;SDS011;7854;52.184;5.942;2023-06-19T00:28:58;6;;;6;;
15504;SDS011;7854;52.184;5.942;2023-06-19T00:31:13;6;;;6;;
15504;SDS011;7854;52.184;5.942;2023-06-19T00:33:28;6;;;6;;
15504;SDS011;7854;52.184;5.942;2023-06-19T00:35:42;6;;;5;;
15504;SDS011;7854;52.184;5.942;2023-06-19T00:37:57;5;;;5;;
15504;SDS011;7854;52.184;5.942;2023-06-19T00:40:14;6;;;5;;
15504;SDS011;7854;52.184;5.942;2023-06-19T00:42:25;5;;;5;;
15504;SDS011;7854;52.184;5.942;2023-06-19T00:44:40;5;;;5;;
15504;SDS011;7854;52.184;5.942;2023-06-19T00:46:55;6;;;5;;
15504;SDS011;7854;52.184;5.942;2023-06-19T00:49:08;5;;;5;;
15504;SDS011;7854;52.184;5.942;2023-06-19T00:51:23;6;;;5;;
15504;SDS011;7854;52.184;5.942;2023-06-19T00:53:37;5;;;5;;
15504;SDS011;7854;52.184;5.942;2023-06-19T00:55:51;5;;;5;;
15504;SDS011;7854;52.184;5.942;2023-06-19T00:58:06;5;;;5;;
15504;SDS011;7854;52.184;5.942;2023-06-19T01:00:20;5;;;4;;
15504;SDS011;7854;52.184;5.942;2023-06-19T01:02:34;5;;;5;;
15504;SDS011;7854;52.184;5.942;2023-06-19T01:04:49;5;;;4;;
15504;SDS011;7854;52.184;5.942;2023-06-19T01:07:05;6;;;5;;
15504;SDS011;7854;52.184;5.942;2023-06-19T01:09:18;5;;;4;;
15504;SDS011;7854;52.184;5.942;2023-06-19T01:11:33;5;;;4;;
15504;SDS011;7854;52.184;5.942;2023-06-19T01:13:47;5;;;5;;
15504;SDS011;7854;52.184;5.942;2023-06-19T01:16:01;4;;;4;;
15504;SDS011;7854;52.184;5.942;2023-06-19T01:18:16;6;;;5;;
15504;SDS011;7854;52.184;5.942;2023-06-19T01:20:30;6;;;5;;
15504;SDS011;7854;52.184;5.942;2023-06-19T01:22:45;5;;;4;;
15504;SDS011;7854;52.184;5.942;2023-06-19T01:24:59;5;;;5;;
15504;SDS011;7854;52.184;5.942;2023-06-19T01:27:13;3;;;3;;
15504;SDS011;7854;52.184;5.942;2023-06-19T01:29:28;3;;;3;;
15504;SDS011;7854;52.184;5.942;2023-06-19T01:31:44;4;;;4;;
15504;SDS011;7854;52.184;5.942;2023-06-19T01:33:57;3;;;3;;
15504;SDS011;7854;52.184;5.942;2023-06-19T01:36:11;5;;;4;;
15504;SDS011;7854;52.184;5.942;2023-06-19T01:38:26;4;;;4;;
15504;SDS011;7854;52.184;5.942;2023-06-19T01:40:40;4;;;3;;
15504;SDS011;7854;52.184;5.942;2023-06-19T01:42:55;4;;;3;;
15504;SDS011;7854;52.184;5.942;2023-06-19T01:45:09;4;;;3;;
15504;SDS011;7854;52.184;5.942;2023-06-19T01:47:23;4;;;4;;
15504;SDS011;7854;52.184;5.942;2023-06-19T01:49:38;3;;;3;;
15504;SDS011;7854;52.184;5.942;2023-06-19T01:51:52;4;;;3;;
15504;SDS011;7854;52.184;5.942;2023-06-19T01:54:06;3;;;3;;
15504;SDS011;7854;52.184;5.942;2023-06-19T01:56:21;4;;;4;;
15504;SDS011;7854;52.184;5.942;2023-06-19T01:58:36;3;;;3;;
15504;SDS011;7854;52.184;5.942;2023-06-19T02:00:50;2;;;2;;
15504;SDS011;7854;52.184;5.942;2023-06-19T02:03:05;5;;;2;;
15504;SDS011;7854;52.184;5.942;2023-06-19T02:05:19;2;;;2;;
15504;SDS011;7854;52.184;5.942;2023-06-19T02:07:33;3;;;2;;
15504;SDS011;7854;52.184;5.942;2023-06-19T02:09:48;4;;;3;;
15504;SDS011;7854;52.184;5.942;2023-06-19T02:12:03;3;;;3;;
15504;SDS011;7854;52.184;5.942;2023-06-19T02:14:17;3;;;3;;
15504;SDS011;7854;52.184;5.942;2023-06-19T02:16:31;2;;;2;;
15504;SDS011;7854;52.184;5.942;2023-06-19T02:18:46;2;;;2;;
15504;SDS011;7854;52.184;5.942;2023-06-19T02:21:00;2;;;2;;
15504;SDS011;7854;52.184;5.942;2023-06-19T02:23:14;3;;;2;;
15504;SDS011;7854;52.184;5.942;2023-06-19T02:25:29;2;;;2;;
15504;SDS011;7854;52.184;5.942;2023-06-19T02:27:44;5;;;2;;
15504;SDS011;7854;52.184;5.942;2023-06-19T02:29:58;7;;;2;;
15504;SDS011;7854;52.184;5.942;2023-06-19T02:32:12;2;;;2;;
15504;SDS011;7854;52.184;5.942;2023-06-19T02:34:26;2;;;2;;
15504;SDS011;7854;52.184;5.942;2023-06-19T02:36:41;3;;;2;;
15504;SDS011;7854;52.184;5.942;2023-06-19T02:38:56;2;;;2;;
15504;SDS011;7854;52.184;5.942;2023-06-19T02:41:10;2;;;2;;
15504;SDS011;7854;52.184;5.942;2023-06-19T02:43:25;3;;;3;;
15504;SDS011;7854;52.184;5.942;2023-06-19T02:45:39;4;;;2;;
15504;SDS011;7854;52.184;5.942;2023-06-19T02:47:53;2;;;2;;
15504;SDS011;7854;52.184;5.942;2023-06-19T02:50:08;3;;;3;;
15504;SDS011;7854;52.184;5.942;2023-06-19T02:52:23;2;;;2;;
15504;SDS011;7854;52.184;5.942;2023-06-19T02:54:37;3;;;3;;
15504;SDS011;7854;52.184;5.942;2023-06-19T02:56:51;3;;;3;;
15504;SDS011;7854;52.184;5.942;2023-06-19T02:59:05;2;;;2;;
15504;SDS011;7854;52.184;5.942;2023-06-19T03:01:20;2;;;2;;
15504;SDS011;7854;52.184;5.942;2023-06-19T03:03:35;2;;;2;;
15504;SDS011;7854;52.184;5.942;2023-06-19T03:05:49;2;;;2;;
15504;SDS011;7854;52.184;5.942;2023-06-19T03:08:03;2;;;2;;
15504;SDS011;7854;52.184;5.942;2023-06-19T03:12:31;3;;;2;;
15504;SDS011;7854;52.184;5.942;2023-06-19T03:14:46;1;;;1;;
15504;SDS011;7854;52.184;5.942;2023-06-19T03:17:00;2;;;2;;
15504;SDS011;7854;52.184;5.942;2023-06-19T03:19:15;2;;;2;;
15504;SDS011;7854;52.184;5.942;2023-06-19T03:21:29;2;;;2;;
15504;SDS011;7854;52.184;5.942;2023-06-19T03:23:43;2;;;2;;
15504;SDS011;7854;52.184;5.942;2023-06-19T03:25:58;5;;;2;;
15504;SDS011;7854;52.184;5.942;2023-06-19T03:28:12;2;;;1;;
15504;SDS011;7854;52.184;5.942;2023-06-19T03:30:27;2;;;2;;
15504;SDS011;7854;52.184;5.942;2023-06-19T03:32:41;1;;;1;;
15504;SDS011;7854;52.184;5.942;2023-06-19T03:34:55;2;;;2;;
15504;SDS011;7854;52.184;5.942;2023-06-19T03:37:08;5;;;1;;
15504;SDS011;7854;52.184;5.942;2023-06-19T03:39:23;2;;;2;;
15504;SDS011;7854;52.184;5.942;2023-06-19T03:41:37;1;;;1;;
15504;SDS011;7854;52.184;5.942;2023-06-19T03:43:52;1;;;1;;
15504;SDS011;7854;52.184;5.942;2023-06-19T03:46:06;2;;;1;;
15504;SDS011;7854;52.184;5.942;2023-06-19T03:48:20;1;;;1;;
15504;SDS011;7854;52.184;5.942;2023-06-19T03:50:36;2;;;2;;
15504;SDS011;7854;52.184;5.942;2023-06-19T03:52:49;1;;;1;;
15504;SDS011;7854;52.184;5.942;2023-06-19T03:55:04;1;;;1;;
15504;SDS011;7854;52.184;5.942;2023-06-19T03:57:18;2;;;2;;
15504;SDS011;7854;52.184;5.942;2023-06-19T03:59:33;1;;;1;;
15504;SDS011;7854;52.184;5.942;2023-06-19T04:01:47;1;;;1;;
15504;SDS011;7854;52.184;5.942;2023-06-19T04:04:01;2;;;1;;
15504;SDS011;7854;52.184;5.942;2023-06-19T04:06:16;2;;;2;;
15504;SDS011;7854;52.184;5.942;2023-06-19T04:08:30;1;;;1;;
15504;SDS011;7854;52.184;5.942;2023-06-19T04:10:45;2;;;2;;
15504;SDS011;7854;52.184;5.942;2023-06-19T04:12:59;1;;;1;;
15504;SDS011;7854;52.184;5.942;2023-06-19T04:15:14;2;;;2;;
15504;SDS011;7854;52.184;5.942;2023-06-19T04:17:28;1;;;1;;
15504;SDS011;7854;52.184;5.942;2023-06-19T04:19:43;1;;;1;;
15504;SDS011;7854;52.184;5.942;2023-06-19T04:21:57;2;;;1;;
15504;SDS011;7854;52.184;5.942;2023-06-19T04:24:12;3;;;1;;
15504;SDS011;7854;52.184;5.942;2023-06-19T04:26:26;2;;;1;;
15504;SDS011;7854;52.184;5.942;2023-06-19T04:28:39;1;;;1;;
15504;SDS011;7854;52.184;5.942;2023-06-19T04:30:54;2;;;1;;
15504;SDS011;7854;52.184;5.942;2023-06-19T04:33:08;1;;;1;;
15504;SDS011;7854;52.184;5.942;2023-06-19T04:35:23;1;;;1;;
15504;SDS011;7854;52.184;5.942;2023-06-19T04:37:37;1;;;1;;
15504;SDS011;7854;52.184;5.942;2023-06-19T04:39:52;1;;;1;;
15504;SDS011;7854;52.184;5.942;2023-06-19T04:42:06;2;;;1;;
15504;SDS011;7854;52.184;5.942;2023-06-19T04:44:20;1;;;1;;
15504;SDS011;7854;52.184;5.942;2023-06-19T04:46:34;1;;;1;;
15504;SDS011;7854;52.184;5.942;2023-06-19T04:48:49;1;;;1;;
15504;SDS011;7854;52.184;5.942;2023-06-19T04:51:03;2;;;1;;
15504;SDS011;7854;52.184;5.942;2023-06-19T04:53:18;2;;;1;;
15504;SDS011;7854;52.184;5.942;2023-06-19T04:55:32;2;;;2;;
15504;SDS011;7854;52.184;5.942;2023-06-19T04:57:47;1;;;1;;
15504;SDS011;7854;52.184;5.942;2023-06-19T05:00:03;7;;;2;;
15504;SDS011;7854;52.184;5.942;2023-06-19T05:02:16;2;;;2;;
15504;SDS011;7854;52.184;5.942;2023-06-19T05:04:29;2;;;1;;
15504;SDS011;7854;52.184;5.942;2023-06-19T05:06:45;1;;;1;;
15504;SDS011;7854;52.184;5.942;2023-06-19T05:08:59;2;;;1;;
15504;SDS011;7854;52.184;5.942;2023-06-19T05:11:13;1;;;1;;
15504;SDS011;7854;52.184;5.942;2023-06-19T05:13:28;1;;;1;;
15504;SDS011;7854;52.184;5.942;2023-06-19T05:15:42;2;;;2;;
15504;SDS011;7854;52.184;5.942;2023-06-19T05:17:57;1;;;1;;
15504;SDS011;7854;52.184;5.942;2023-06-19T05:20:11;1;;;1;;
15504;SDS011;7854;52.184;5.942;2023-06-19T05:22:25;2;;;1;;
15504;SDS011;7854;52.184;5.942;2023-06-19T05:24:41;2;;;2;;
15504;SDS011;7854;52.184;5.942;2023-06-19T05:26:55;2;;;1;;
15504;SDS011;7854;52.184;5.942;2023-06-19T05:29:09;2;;;2;;
15504;SDS011;7854;52.184;5.942;2023-06-19T05:31:23;2;;;2;;
15504;SDS011;7854;52.184;5.942;2023-06-19T05:33:38;4;;;2;;
15504;SDS011;7854;52.184;5.942;2023-06-19T05:35:54;2;;;2;;
15504;SDS011;7854;52.184;5.942;2023-06-19T05:38:07;3;;;2;;
15504;SDS011;7854;52.184;5.942;2023-06-19T05:40:21;2;;;2;;
15504;SDS011;7854;52.184;5.942;2023-06-19T05:42:36;3;;;3;;
15504;SDS011;7854;52.184;5.942;2023-06-19T05:44:50;4;;;3;;
15504;SDS011;7854;52.184;5.942;2023-06-19T05:47:04;3;;;3;;
15504;SDS011;7854;52.184;5.942;2023-06-19T05:49:20;3;;;3;;
15504;SDS011;7854;52.184;5.942;2023-06-19T05:51:33;4;;;4;;
15504;SDS011;7854;52.184;5.942;2023-06-19T05:53:48;3;;;3;;
15504;SDS011;7854;52.184;5.942;2023-06-19T05:56:02;7;;;3;;
15504;SDS011;7854;52.184;5.942;2023-06-19T05:58:17;3;;;3;;
15504;SDS011;7854;52.184;5.942;2023-06-19T06:00:32;5;;;5;;
15504;SDS011;7854;52.184;5.942;2023-06-19T06:02:45;3;;;3;;
15504;SDS011;7854;52.184;5.942;2023-06-19T06:05:00;4;;;3;;
15504;SDS011;7854;52.184;5.942;2023-06-19T06:07:14;4;;;3;;
15504;SDS011;7854;52.184;5.942;2023-06-19T06:09:28;4;;;4;;
15504;SDS011;7854;52.184;5.942;2023-06-19T06:11:43;4;;;4;;
15504;SDS011;7854;52.184;5.942;2023-06-19T06:13:57;4;;;4;;
15504;SDS011;7854;52.184;5.942;2023-06-19T06:16:12;5;;;5;;
15504;SDS011;7854;52.184;5.942;2023-06-19T06:18:26;4;;;4;;
15504;SDS011;7854;52.184;5.942;2023-06-19T06:20:41;4;;;4;;
15504;SDS011;7854;52.184;5.942;2023-06-19T06:22:55;5;;;4;;
15504;SDS011;7854;52.184;5.942;2023-06-19T06:25:10;4;;;4;;
15504;SDS011;7854;52.184;5.942;2023-06-19T06:27:24;4;;;4;;
15504;SDS011;7854;52.184;5.942;2023-06-19T06:29:38;4;;;4;;
15504;SDS011;7854;52.184;5.942;2023-06-19T06:32:02;5;;;4;;
15504;SDS011;7854;52.184;5.942;2023-06-19T06:36:22;4;;;3;;
15504;SDS011;7854;52.184;5.942;2023-06-19T06:38:36;3;;;3;;
15504;SDS011;7854;52.184;5.942;2023-06-19T06:40:51;3;;;3;;
15504;SDS011;7854;52.184;5.942;2023-06-19T06:43:05;4;;;4;;
15504;SDS011;7854;52.184;5.942;2023-06-19T06:45:20;5;;;4;;
15504;SDS011;7854;52.184;5.942;2023-06-19T06:47:34;3;;;3;;
15504;SDS011;7854;52.184;5.942;2023-06-19T06:49:50;3;;;3;;
15504;SDS011;7854;52.184;5.942;2023-06-19T06:52:03;3;;;3;;
15504;SDS011;7854;52.184;5.942;2023-06-19T06:54:18;3;;;3;;
15504;SDS011;7854;52.184;5.942;2023-06-19T06:56:32;4;;;3;;
15504;SDS011;7854;52.184;5.942;2023-06-19T06:58:46;3;;;3;;
15504;SDS011;7854;52.184;5.942;2023-06-19T07:01:01;4;;;4;;
15504;SDS011;7854;52.184;5.942;2023-06-19T07:03:16;3;;;3;;
15504;SDS011;7854;52.184;5.942;2023-06-19T07:05:28;3;;;3;;
15504;SDS011;7854;52.184;5.942;2023-06-19T07:07:42;3;;;3;;
15504;SDS011;7854;52.184;5.942;2023-06-19T07:09:57;6;;;3;;
15504;SDS011;7854;52.184;5.942;2023-06-19T07:12:11;3;;;3;;
15504;SDS011;7854;52.184;5.942;2023-06-19T07:14:26;3;;;3;;
15504;SDS011;7854;52.184;5.942;2023-06-19T07:16:40;3;;;3;;
15504;SDS011;7854;52.184;5.942;2023-06-19T07:18:54;4;;;4;;
15504;SDS011;7854;52.184;5.942;2023-06-19T07:21:11;4;;;3;;
15504;SDS011;7854;52.184;5.942;2023-06-19T07:23:23;3;;;3;;
15504;SDS011;7854;52.184;5.942;2023-06-19T07:25:38;4;;;3;;
15504;SDS011;7854;52.184;5.942;2023-06-19T07:27:52;3;;;3;;
15504;SDS011;7854;52.184;5.942;2023-06-19T07:30:08;3;;;3;;
15504;SDS011;7854;52.184;5.942;2023-06-19T07:32:21;2;;;2;;
15504;SDS011;7854;52.184;5.942;2023-06-19T07:34:35;2;;;2;;
15504;SDS011;7854;52.184;5.942;2023-06-19T07:36:50;5;;;4;;
15504;SDS011;7854;52.184;5.942;2023-06-19T07:39:04;5;;;5;;
15504;SDS011;7854;52.184;5.942;2023-06-19T07:41:19;5;;;5;;
15504;SDS011;7854;52.184;5.942;2023-06-19T07:43:34;6;;;6;;
15504;SDS011;7854;52.184;5.942;2023-06-19T07:45:48;9;;;6;;
15504;SDS011;7854;52.184;5.942;2023-06-19T07:48:03;6;;;6;;
15504;SDS011;7854;52.184;5.942;2023-06-19T07:50:17;6;;;5;;
15504;SDS011;7854;52.184;5.942;2023-06-19T07:52:31;5;;;4;;
15504;SDS011;7854;52.184;5.942;2023-06-19T07:54:47;4;;;4;;
15504;SDS011;7854;52.184;5.942;2023-06-19T07:57:00;4;;;4;;
15504;SDS011;7854;52.184;5.942;2023-06-19T07:59:15;3;;;3;;
15504;SDS011;7854;52.184;5.942;2023-06-19T08:01:29;4;;;4;;
15504;SDS011;7854;52.184;5.942;2023-06-19T08:03:44;4;;;4;;
15504;SDS011;7854;52.184;5.942;2023-06-19T08:05:58;5;;;4;;
15504;SDS011;7854;52.184;5.942;2023-06-19T08:08:12;4;;;4;;
15504;SDS011;7854;52.184;5.942;2023-06-19T08:10:27;4;;;3;;
15504;SDS011;7854;52.184;5.942;2023-06-19T08:12:42;3;;;3;;
15504;SDS011;7854;52.184;5.942;2023-06-19T08:14:56;4;;;4;;
15504;SDS011;7854;52.184;5.942;2023-06-19T08:17:10;3;;;3;;
15504;SDS011;7854;52.184;5.942;2023-06-19T08:19:24;4;;;4;;
15504;SDS011;7854;52.184;5.942;2023-06-19T08:21:39;5;;;4;;
15504;SDS011;7854;52.184;5.942;2023-06-19T08:23:53;5;;;4;;
15504;SDS011;7854;52.184;5.942;2023-06-19T08:26:10;5;;;5;;
15504;SDS011;7854;52.184;5.942;2023-06-19T08:28:22;4;;;4;;
15504;SDS011;7854;52.184;5.942;2023-06-19T08:30:36;10;;;4;;
15504;SDS011;7854;52.184;5.942;2023-06-19T08:32:51;4;;;4;;
15504;SDS011;7854;52.184;5.942;2023-06-19T08:35:06;5;;;5;;
15504;SDS011;7854;52.184;5.942;2023-06-19T08:37:20;6;;;5;;
15504;SDS011;7854;52.184;5.942;2023-06-19T08:39:35;4;;;4;;
15504;SDS011;7854;52.184;5.942;2023-06-19T08:41:49;4;;;4;;
15504;SDS011;7854;52.184;5.942;2023-06-19T08:44:03;5;;;5;;
15504;SDS011;7854;52.184;5.942;2023-06-19T08:46:18;5;;;4;;
15504;SDS011;7854;52.184;5.942;2023-06-19T08:48:33;6;;;5;;
15504;SDS011;7854;52.184;5.942;2023-06-19T08:50:46;5;;;5;;
15504;SDS011;7854;52.184;5.942;2023-06-19T08:53:00;4;;;4;;
15504;SDS011;7854;52.184;5.942;2023-06-19T08:55:15;5;;;5;;
15504;SDS011;7854;52.184;5.942;2023-06-19T08:57:33;5;;;5;;
15504;SDS011;7854;52.184;5.942;2023-06-19T08:59:47;5;;;5;;
15504;SDS011;7854;52.184;5.942;2023-06-19T09:01:58;5;;;4;;
15504;SDS011;7854;52.184;5.942;2023-06-19T09:04:13;5;;;5;;
15504;SDS011;7854;52.184;5.942;2023-06-19T09:06:27;5;;;5;;
15504;SDS011;7854;52.184;5.942;2023-06-19T09:08:41;9;;;5;;
15504;SDS011;7854;52.184;5.942;2023-06-19T09:10:56;6;;;5;;
15504;SDS011;7854;52.184;5.942;2023-06-19T09:15:26;5;;;5;;
15504;SDS011;7854;52.184;5.942;2023-06-19T09:17:39;5;;;4;;
15504;SDS011;7854;52.184;5.942;2023-06-19T09:19:54;4;;;4;;
15504;SDS011;7854;52.184;5.942;2023-06-19T09:22:08;6;;;5;;
15504;SDS011;7854;52.184;5.942;2023-06-19T09:24:22;5;;;5;;
15504;SDS011;7854;52.184;5.942;2023-06-19T09:26:37;7;;;6;;
15504;SDS011;7854;52.184;5.942;2023-06-19T09:28:51;6;;;6;;
15504;SDS011;7854;52.184;5.942;2023-06-19T09:31:06;6;;;6;;
15504;SDS011;7854;52.184;5.942;2023-06-19T09:33:20;8;;;7;;
15504;SDS011;7854;52.184;5.942;2023-06-19T09:35:34;6;;;6;;
15504;SDS011;7854;52.184;5.942;2023-06-19T09:37:50;7;;;7;;
15504;SDS011;7854;52.184;5.942;2023-06-19T09:40:04;8;;;7;;
15504;SDS011;7854;52.184;5.942;2023-06-19T09:42:18;7;;;7;;
15504;SDS011;7854;52.184;5.942;2023-06-19T09:44:36;7;;;7;;
15504;SDS011;7854;52.184;5.942;2023-06-19T09:46:47;5;;;5;;
15504;SDS011;7854;52.184;5.942;2023-06-19T09:49:01;6;;;6;;
15504;SDS011;7854;52.184;5.942;2023-06-19T09:51:17;6;;;6;;
15504;SDS011;7854;52.184;5.942;2023-06-19T09:53:30;6;;;6;;
15504;SDS011;7854;52.184;5.942;2023-06-19T09:55:45;7;;;7;;
15504;SDS011;7854;52.184;5.942;2023-06-19T09:57:59;9;;;7;;
15504;SDS011;7854;52.184;5.942;2023-06-19T10:00:14;8;;;7;;
15504;SDS011;7854;52.184;5.942;2023-06-19T10:02:28;6;;;6;;
15504;SDS011;7854;52.184;5.942;2023-06-19T10:04:43;7;;;7;;
15504;SDS011;7854;52.184;5.942;2023-06-19T10:06:57;6;;;6;;
15504;SDS011;7854;52.184;5.942;2023-06-19T10:09:13;6;;;6;;
15504;SDS011;7854;52.184;5.942;2023-06-19T10:11:26;7;;;7;;
15504;SDS011;7854;52.184;5.942;2023-06-19T10:13:41;7;;;7;;
15504;SDS011;7854;52.184;5.942;2023-06-19T10:15:55;7;;;6;;
15504;SDS011;7854;52.184;5.942;2023-06-19T10:18:12;10;;;9;;
15504;SDS011;7854;52.184;5.942;2023-06-19T10:20:25;8;;;8;;
15504;SDS011;7854;52.184;5.942;2023-06-19T10:22:38;9;;;8;;
15504;SDS011;7854;52.184;5.942;2023-06-19T10:24:53;8;;;7;;
15504;SDS011;7854;52.184;5.942;2023-06-19T10:27:07;8;;;8;;
15504;SDS011;7854;52.184;5.942;2023-06-19T10:29:21;8;;;8;;
15504;SDS011;7854;52.184;5.942;2023-06-19T10:31:36;8;;;7;;
15504;SDS011;7854;52.184;5.942;2023-06-19T10:33:50;7;;;6;;
15504;SDS011;7854;52.184;5.942;2023-06-19T10:36:13;8;;;8;;
15504;SDS011;7854;52.184;5.942;2023-06-19T10:38:19;7;;;7;;
15504;SDS011;7854;52.184;5.942;2023-06-19T10:40:35;8;;;7;;
15504;SDS011;7854;52.184;5.942;2023-06-19T10:42:48;7;;;7;;
15504;SDS011;7854;52.184;5.942;2023-06-19T10:45:04;8;;;7;;
15504;SDS011;7854;52.184;5.942;2023-06-19T10:47:17;7;;;7;;
15504;SDS011;7854;52.184;5.942;2023-06-19T10:49:31;7;;;7;;
15504;SDS011;7854;52.184;5.942;2023-06-19T10:51:48;6;;;6;;
15504;SDS011;7854;52.184;5.942;2023-06-19T10:56:15;6;;;5;;
15504;SDS011;7854;52.184;5.942;2023-06-19T10:58:29;8;;;7;;
15504;SDS011;7854;52.184;5.942;2023-06-19T11:00:44;8;;;7;;
15504;SDS011;7854;52.184;5.942;2023-06-19T11:02:58;7;;;6;;
15504;SDS011;7854;52.184;5.942;2023-06-19T11:05:13;7;;;6;;
15504;SDS011;7854;52.184;5.942;2023-06-19T11:07:26;10;;;9;;
15504;SDS011;7854;52.184;5.942;2023-06-19T11:09:41;6;;;6;;
15504;SDS011;7854;52.184;5.942;2023-06-19T11:11:56;7;;;6;;
15504;SDS011;7854;52.184;5.942;2023-06-19T11:14:11;8;;;7;;
15504;SDS011;7854;52.184;5.942;2023-06-19T11:16:25;8;;;7;;
15504;SDS011;7854;52.184;5.942;2023-06-19T11:18:39;7;;;7;;
15504;SDS011;7854;52.184;5.942;2023-06-19T11:20:54;6;;;6;;
15504;SDS011;7854;52.184;5.942;2023-06-19T11:23:08;7;;;6;;
15504;SDS011;7854;52.184;5.942;2023-06-19T11:25:23;7;;;7;;
15504;SDS011;7854;52.184;5.942;2023-06-19T11:27:37;7;;;7;;
15504;SDS011;7854;52.184;5.942;2023-06-19T11:29:54;7;;;7;;
15504;SDS011;7854;52.184;5.942;2023-06-19T11:32:07;8;;;7;;
15504;SDS011;7854;52.184;5.942;2023-06-19T11:34:30;7;;;6;;
15504;SDS011;7854;52.184;5.942;2023-06-19T11:36:36;6;;;5;;
15504;SDS011;7854;52.184;5.942;2023-06-19T11:38:50;6;;;6;;
15504;SDS011;7854;52.184;5.942;2023-06-19T11:41:04;5;;;5;;
15504;SDS011;7854;52.184;5.942;2023-06-19T11:43:26;6;;;5;;
15504;SDS011;7854;52.184;5.942;2023-06-19T11:45:33;9;;;7;;
15504;SDS011;7854;52.184;5.942;2023-06-19T11:47:48;7;;;6;;
15504;SDS011;7854;52.184;5.942;2023-06-19T11:50:03;6;;;5;;
15504;SDS011;7854;52.184;5.942;2023-06-19T11:52:16;5;;;5;;
15504;SDS011;7854;52.184;5.942;2023-06-19T11:54:31;6;;;5;;
15504;SDS011;7854;52.184;5.942;2023-06-19T11:56:46;7;;;6;;
15504;SDS011;7854;52.184;5.942;2023-06-19T11:59:00;5;;;4;;
15504;SDS011;7854;52.184;5.942;2023-06-19T12:01:14;6;;;5;;
15504;SDS011;7854;52.184;5.942;2023-06-19T12:03:29;7;;;7;;
15504;SDS011;7854;52.184;5.942;2023-06-19T12:05:43;6;;;5;;
15504;SDS011;7854;52.184;5.942;2023-06-19T12:07:57;6;;;5;;
15504;SDS011;7854;52.184;5.942;2023-06-19T12:10:12;6;;;5;;
15504;SDS011;7854;52.184;5.942;2023-06-19T12:12:27;7;;;6;;
15504;SDS011;7854;52.184;5.942;2023-06-19T12:14:40;6;;;5;;
15504;SDS011;7854;52.184;5.942;2023-06-19T12:16:55;6;;;6;;
15504;SDS011;7854;52.184;5.942;2023-06-19T12:19:09;5;;;5;;
15504;SDS011;7854;52.184;5.942;2023-06-19T12:21:24;5;;;5;;
15504;SDS011;7854;52.184;5.942;2023-06-19T12:23:38;8;;;5;;
15504;SDS011;7854;52.184;5.942;2023-06-19T12:25:53;5;;;5;;
15504;SDS011;7854;52.184;5.942;2023-06-19T12:28:07;6;;;6;;
15504;SDS011;7854;52.184;5.942;2023-06-19T12:30:22;6;;;6;;
15504;SDS011;7854;52.184;5.942;2023-06-19T12:32:36;6;;;5;;
15504;SDS011;7854;52.184;5.942;2023-06-19T12:34:51;7;;;6;;
15504;SDS011;7854;52.184;5.942;2023-06-19T12:37:05;6;;;6;;
15504;SDS011;7854;52.184;5.942;2023-06-19T12:39:20;6;;;6;;
15504;SDS011;7854;52.184;5.942;2023-06-19T12:41:35;4;;;4;;
15504;SDS011;7854;52.184;5.942;2023-06-19T12:43:49;5;;;4;;
15504;SDS011;7854;52.184;5.942;2023-06-19T12:46:04;4;;;4;;
15504;SDS011;7854;52.184;5.942;2023-06-19T12:48:18;4;;;4;;
15504;SDS011;7854;52.184;5.942;2023-06-19T12:50:32;4;;;3;;
15504;SDS011;7854;52.184;5.942;2023-06-19T12:52:47;4;;;4;;
15504;SDS011;7854;52.184;5.942;2023-06-19T12:55:03;4;;;4;;
15504;SDS011;7854;52.184;5.942;2023-06-19T12:57:17;5;;;5;;
15504;SDS011;7854;52.184;5.942;2023-06-19T12:59:31;5;;;5;;
15504;SDS011;7854;52.184;5.942;2023-06-19T13:01:46;4;;;3;;
15504;SDS011;7854;52.184;5.942;2023-06-19T13:04:00;4;;;3;;
15504;SDS011;7854;52.184;5.942;2023-06-19T13:06:15;5;;;4;;
15504;SDS011;7854;52.184;5.942;2023-06-19T13:08:29;6;;;5;;
15504;SDS011;7854;52.184;5.942;2023-06-19T13:10:44;5;;;5;;
15504;SDS011;7854;52.184;5.942;2023-06-19T13:12:58;7;;;4;;
15504;SDS011;7854;52.184;5.942;2023-06-19T13:15:13;6;;;6;;
15504;SDS011;7854;52.184;5.942;2023-06-19T13:17:27;5;;;5;;
15504;SDS011;7854;52.184;5.942;2023-06-19T13:19:42;4;;;4;;
15504;SDS011;7854;52.184;5.942;2023-06-19T13:21:56;4;;;4;;
15504;SDS011;7854;52.184;5.942;2023-06-19T13:24:11;5;;;4;;
15504;SDS011;7854;52.184;5.942;2023-06-19T13:26:25;4;;;4;;
15504;SDS011;7854;52.184;5.942;2023-06-19T13:28:40;6;;;4;;
15504;SDS011;7854;52.184;5.942;2023-06-19T13:30:54;9;;;4;;
15504;SDS011;7854;52.184;5.942;2023-06-19T13:33:09;3;;;3;;
15504;SDS011;7854;52.184;5.942;2023-06-19T13:35:23;6;;;4;;
15504;SDS011;7854;52.184;5.942;2023-06-19T13:37:37;5;;;5;;
15504;SDS011;7854;52.184;5.942;2023-06-19T13:39:52;4;;;3;;
15504;SDS011;7854;52.184;5.942;2023-06-19T13:42:07;6;;;4;;
15504;SDS011;7854;52.184;5.942;2023-06-19T13:46:35;6;;;5;;
15504;SDS011;7854;52.184;5.942;2023-06-19T13:48:49;21;;;6;;
15504;SDS011;7854;52.184;5.942;2023-06-19T13:51:04;8;;;5;;
15504;SDS011;7854;52.184;5.942;2023-06-19T13:53:19;7;;;7;;
15504;SDS011;7854;52.184;5.942;2023-06-19T13:55:33;8;;;5;;
15504;SDS011;7854;52.184;5.942;2023-06-19T13:57:47;5;;;5;;
15504;SDS011;7854;52.184;5.942;2023-06-19T14:00:03;6;;;6;;
15504;SDS011;7854;52.184;5.942;2023-06-19T14:02:17;6;;;5;;
15504;SDS011;7854;52.184;5.942;2023-06-19T14:04:31;5;;;5;;
15504;SDS011;7854;52.184;5.942;2023-06-19T14:06:45;6;;;6;;
15504;SDS011;7854;52.184;5.942;2023-06-19T14:08:59;6;;;6;;
15504;SDS011;7854;52.184;5.942;2023-06-19T14:11:14;6;;;6;;
15504;SDS011;7854;52.184;5.942;2023-06-19T14:13:28;7;;;5;;
15504;SDS011;7854;52.184;5.942;2023-06-19T14:15:43;5;;;5;;
15504;SDS011;7854;52.184;5.942;2023-06-19T14:17:57;6;;;6;;
15504;SDS011;7854;52.184;5.942;2023-06-19T14:20:12;6;;;5;;
15504;SDS011;7854;52.184;5.942;2023-06-19T14:22:26;5;;;5;;
15504;SDS011;7854;52.184;5.942;2023-06-19T14:24:41;5;;;5;;
15504;SDS011;7854;52.184;5.942;2023-06-19T14:26:55;5;;;5;;
15504;SDS011;7854;52.184;5.942;2023-06-19T14:29:10;6;;;5;;
15504;SDS011;7854;52.184;5.942;2023-06-19T14:31:24;5;;;5;;
15504;SDS011;7854;52.184;5.942;2023-06-19T14:33:39;4;;;4;;
15504;SDS011;7854;52.184;5.942;2023-06-19T14:35:53;5;;;4;;
15504;SDS011;7854;52.184;5.942;2023-06-19T14:38:06;5;;;4;;
15504;SDS011;7854;52.184;5.942;2023-06-19T14:40:21;5;;;5;;
15504;SDS011;7854;52.184;5.942;2023-06-19T14:42:35;6;;;5;;
15504;SDS011;7854;52.184;5.942;2023-06-19T14:44:50;5;;;5;;
15504;SDS011;7854;52.184;5.942;2023-06-19T14:47:05;5;;;4;;
15504;SDS011;7854;52.184;5.942;2023-06-19T14:49:20;5;;;5;;
15504;SDS011;7854;52.184;5.942;2023-06-19T14:51:33;5;;;5;;
15504;SDS011;7854;52.184;5.942;2023-06-19T14:53:48;5;;;4;;
15504;SDS011;7854;52.184;5.942;2023-06-19T14:56:02;5;;;4;;
15504;SDS011;7854;52.184;5.942;2023-06-19T14:58:16;5;;;5;;
15504;SDS011;7854;52.184;5.942;2023-06-19T15:00:31;5;;;4;;
15504;SDS011;7854;52.184;5.942;2023-06-19T15:02:46;5;;;4;;
15504;SDS011;7854;52.184;5.942;2023-06-19T15:05:00;5;;;5;;
15504;SDS011;7854;52.184;5.942;2023-06-19T15:07:14;5;;;4;;
15504;SDS011;7854;52.184;5.942;2023-06-19T15:09:28;6;;;5;;
15504;SDS011;7854;52.184;5.942;2023-06-19T15:11:43;5;;;5;;
15504;SDS011;7854;52.184;5.942;2023-06-19T15:13:57;6;;;5;;
15504;SDS011;7854;52.184;5.942;2023-06-19T15:16:12;5;;;4;;
15504;SDS011;7854;52.184;5.942;2023-06-19T15:18:26;5;;;4;;
15504;SDS011;7854;52.184;5.942;2023-06-19T15:20:41;5;;;5;;
15504;SDS011;7854;52.184;5.942;2023-06-19T15:22:55;5;;;5;;
15504;SDS011;7854;52.184;5.942;2023-06-19T15:25:10;5;;;4;;